Time;durP1;ratioP1;P1;durP2;ratioP2;P2;SDS_P1;SDS_P2;PMS_P1;PMS_P2;Temp;Humidity;BMP_temperature;BMP_pressure;BME280_temperature;BME280_humidity;BME280_pressure;Samples;Min_cycle;Max_cycle;Signal;HPM_P1;HPM_P2
2021/03/10 00:00:22;;;;;;;1999.90;999.90;;;16.90;99.90;;;;;;5073519;28;20168;-34
2021/03/10 00:02:49;;;;;;;1999.90;999.90;;;16.90;99.90;;;;;;5073548;28;20187;-35
2021/03/10 00:05:16;;;;;;;1999.90;999.90;;;16.90;99.90;;;;;;5073575;28;20164;-34
2021/03/10 00:07:43;;;;;;;1999.90;999.90;;;17.00;99.90;;;;;;5073205;28;20279;-34
2021/03/10 00:10:12;;;;;;;1999.90;999.90;;;17.00;99.90;;;;;;5073375;28;20642;-35
2021/03/10 00:12:40;;;;;;;1999.90;999.90;;;17.00;99.90;;;;;;5073345;28;20161;-35
2021/03/10 00:15:11;;;;;;;1999.90;999.90;;;17.00;99.90;;;;;;5073308;28;20693;-36
2021/03/10 00:17:39;;;;;;;1999.90;999.90;;;17.00;99.90;;;;;;5073198;28;20212;-36
2021/03/10 00:20:07;;;;;;;1999.90;999.90;;;17.00;99.90;;;;;;5073103;28;20634;-36
2021/03/10 00:22:34;;;;;;;1999.90;999.90;;;17.10;99.90;;;;;;5073124;28;20176;-35
2021/03/10 00:25:02;;;;;;;1999.90;999.90;;;17.10;99.90;;;;;;5073162;28;20170;-35
2021/03/10 00:27:29;;;;;;;1999.90;999.90;;;17.10;99.90;;;;;;5073071;28;20194;-35
2021/03/10 00:30:00;;;;;;;1999.90;999.90;;;17.10;99.90;;;;;;5073101;28;20298;-35
2021/03/10 00:32:28;;;;;;;1999.90;999.90;;;17.10;99.90;;;;;;5072850;28;20178;-35
2021/03/10 00:34:56;;;;;;;1999.90;999.90;;;17.10;99.90;;;;;;5072932;28;20173;-34
2021/03/10 00:37:24;;;;;;;1999.90;999.90;;;17.20;99.90;;;;;;5072910;28;20240;-35
2021/03/10 00:39:51;;;;;;;1999.90;999.90;;;17.10;99.90;;;;;;5073129;28;20686;-34
2021/03/10 00:42:18;;;;;;;1999.90;999.90;;;17.20;99.90;;;;;;5073053;28;20172;-35
2021/03/10 00:44:46;;;;;;;1999.90;999.90;;;17.10;99.90;;;;;;5072949;28;20164;-35
2021/03/10 00:47:13;;;;;;;1999.90;999.90;;;17.20;99.90;;;;;;5072862;28;20251;-34
2021/03/10 00:49:41;;;;;;;1999.90;999.90;;;17.20;99.90;;;;;;5072780;28;20260;-35
2021/03/10 00:52:08;;;;;;;1999.90;999.90;;;17.20;99.90;;;;;;5072784;28;20182;-35
2021/03/10 00:54:35;;;;;;;1999.90;999.90;;;17.20;99.90;;;;;;5072872;28;20205;-34
2021/03/10 00:57:03;;;;;;;1999.90;999.90;;;17.20;99.90;;;;;;5072716;28;20196;-34
2021/03/10 00:59:30;;;;;;;1999.90;999.90;;;17.20;99.90;;;;;;5072835;28;20289;-34
2021/03/10 01:01:57;;;;;;;1999.90;999.90;;;17.20;99.90;;;;;;5072783;28;20210;-34
2021/03/10 01:04:24;;;;;;;1999.90;999.90;;;17.20;99.90;;;;;;5072871;28;20218;-37
2021/03/10 01:06:51;;;;;;;1999.90;999.90;;;17.20;99.90;;;;;;5072662;28;20261;-35
2021/03/10 01:09:19;;;;;;;1999.90;999.90;;;17.20;99.90;;;;;;5072702;28;20555;-34
2021/03/10 01:11:46;;;;;;;1999.90;999.90;;;17.20;99.90;;;;;;5072689;28;20497;-34
2021/03/10 01:14:14;;;;;;;1999.90;999.90;;;17.30;99.90;;;;;;5072618;28;20164;-34
2021/03/10 01:16:41;;;;;;;1999.90;999.90;;;17.20;99.90;;;;;;5072575;28;20196;-35
2021/03/10 01:19:08;;;;;;;1999.90;999.90;;;17.30;99.90;;;;;;5072567;28;20642;-34
2021/03/10 01:21:35;;;;;;;1999.90;999.90;;;17.20;99.90;;;;;;5072447;28;20173;-34
2021/03/10 01:24:04;;;;;;;1999.90;999.90;;;17.30;99.90;;;;;;5072578;28;20181;-34
2021/03/10 01:26:31;;;;;;;1999.90;999.90;;;17.30;99.90;;;;;;5072515;28;20161;-34
2021/03/10 01:28:58;;;;;;;1999.90;999.90;;;17.30;99.90;;;;;;5072499;28;20175;-34
2021/03/10 01:31:25;;;;;;;1999.90;999.90;;;17.30;99.90;;;;;;5072679;28;20164;-35
2021/03/10 01:33:51;;;;;;;1999.90;999.90;;;17.30;99.90;;;;;;5072486;28;20634;-35
2021/03/10 01:36:18;;;;;;;1999.90;999.90;;;17.30;99.90;;;;;;5072343;28;20236;-35
2021/03/10 01:38:45;;;;;;;1999.90;999.90;;;17.30;99.90;;;;;;5072456;28;20243;-35
2021/03/10 01:41:14;;;;;;;1999.90;999.90;;;17.30;99.90;;;;;;5072262;28;20229;-36
2021/03/10 01:43:41;;;;;;;1999.90;999.90;;;17.40;99.90;;;;;;5074387;28;20160;-36
2021/03/10 01:46:08;;;;;;;1999.90;999.90;;;17.40;99.90;;;;;;5076140;28;20161;-36
2021/03/10 01:48:35;;;;;;;1999.90;999.90;;;17.40;99.90;;;;;;5076043;28;20169;-36
2021/03/10 01:51:06;;;;;;;1999.90;999.90;;;17.40;99.90;;;;;;5076039;28;20168;-37
2021/03/10 01:53:34;;;;;;;1999.90;999.90;;;17.50;99.90;;;;;;5075966;28;20247;-37
2021/03/10 01:56:02;;;;;;;1999.90;999.90;;;17.50;99.90;;;;;;5075817;28;20235;-36
2021/03/10 01:58:29;;;;;;;1999.90;999.90;;;17.50;99.90;;;;;;5076048;28;20171;-36
2021/03/10 02:00:56;;;;;;;1999.90;999.90;;;17.60;99.90;;;;;;5075888;28;20168;-36
2021/03/10 02:03:23;;;;;;;1999.90;999.90;;;17.60;99.90;;;;;;5075790;28;20634;-36
2021/03/10 02:05:50;;;;;;;1999.90;999.90;;;17.60;99.90;;;;;;5075716;28;20202;-37
2021/03/10 02:08:33;;;;;;;1999.90;999.90;;;17.60;99.90;;;;;;5075541;28;20212;-38
2021/03/10 02:11:27;;;;;;;1999.90;999.90;;;17.60;99.90;;;;;;5075821;28;20615;-36
2021/03/10 02:14:14;;;;;;;1999.90;999.90;;;17.60;99.90;;;;;;5075624;28;20165;-36
2021/03/10 02:16:48;;;;;;;1999.90;999.90;;;17.60;99.90;;;;;;5075743;28;20559;-37
2021/03/10 02:19:50;;;;;;;1999.90;999.90;;;17.60;99.90;;;;;;5075506;28;20302;-37
2021/03/10 02:22:41;;;;;;;1999.90;999.90;;;17.60;99.90;;;;;;5075638;28;20188;-36
2021/03/10 02:25:31;;;;;;;1999.90;999.90;;;17.60;99.90;;;;;;5075470;28;20153;-37
2021/03/10 02:28:02;;;;;;;1999.90;999.90;;;17.60;99.90;;;;;;5064419;28;20181;-37
2021/03/10 02:30:45;;;;;;;1999.90;999.90;;;17.70;99.90;;;;;;5075485;28;20156;-37
2021/03/10 02:33:18;;;;;;;1999.90;999.90;;;17.60;99.90;;;;;;5075307;28;20163;-37
2021/03/10 02:35:51;;;;;;;1999.90;999.90;;;17.70;99.90;;;;;;5075118;28;20183;-36
2021/03/10 02:38:23;;;;;;;1999.90;999.90;;;17.70;99.90;;;;;;5075213;28;20161;-37
2021/03/10 02:40:53;;;;;;;1999.90;999.90;;;17.70;99.90;;;;;;5075140;28;20630;-36
2021/03/10 02:43:21;;;;;;;1999.90;999.90;;;17.70;99.90;;;;;;5075079;28;20176;-38
2021/03/10 02:45:50;;;;;;;1999.90;999.90;;;17.70;99.90;;;;;;5074960;28;20168;-37
2021/03/10 02:48:18;;;;;;;1999.90;999.90;;;17.70;99.90;;;;;;5075010;28;20161;-36
2021/03/10 02:50:47;;;;;;;1999.90;999.90;;;17.70;99.90;;;;;;5074878;28;20165;-36
2021/03/10 02:53:15;;;;;;;1999.90;999.90;;;17.70;99.90;;;;;;5074933;28;20168;-36
2021/03/10 02:55:42;;;;;;;1999.90;999.90;;;17.70;99.90;;;;;;5074651;28;20156;-37
2021/03/10 02:58:12;;;;;;;1999.90;999.90;;;17.70;99.90;;;;;;5074680;28;20181;-36
2021/03/10 03:00:40;;;;;;;1999.90;999.90;;;17.70;99.90;;;;;;5074760;28;20187;-36
2021/03/10 03:03:07;;;;;;;1999.90;999.90;;;17.70;99.90;;;;;;5074719;28;20164;-36
2021/03/10 03:05:35;;;;;;;1999.90;999.90;;;17.70;99.90;;;;;;5074761;28;20255;-35
2021/03/10 03:08:04;;;;;;;1999.90;999.90;;;17.70;99.90;;;;;;5074520;28;20244;-35
2021/03/10 03:10:35;;;;;;;1999.90;999.90;;;17.70;99.90;;;;;;5074582;28;20181;-36
2021/03/10 03:13:03;;;;;;;1999.90;999.90;;;17.70;99.90;;;;;;5074716;28;20157;-36
2021/03/10 03:15:30;;;;;;;1999.90;999.90;;;17.70;99.90;;;;;;5074474;28;20176;-36
2021/03/10 03:17:57;;;;;;;1999.90;999.90;;;17.70;99.90;;;;;;5074353;28;20267;-36
2021/03/10 03:20:25;;;;;;;1999.90;999.90;;;17.70;99.90;;;;;;5074360;28;20168;-36
2021/03/10 03:22:56;;;;;;;1999.90;999.90;;;17.70;99.90;;;;;;5074234;28;20605;-36
2021/03/10 03:25:28;;;;;;;1999.90;999.90;;;17.70;99.90;;;;;;5074270;28;20171;-36
2021/03/10 03:28:03;;;;;;;1999.90;999.90;;;17.70;99.90;;;;;;5074215;28;20165;-36
2021/03/10 03:30:33;;;;;;;1999.90;999.90;;;17.70;99.90;;;;;;5074136;28;20152;-36
2021/03/10 03:33:05;;;;;;;1999.90;999.90;;;17.80;99.90;;;;;;5074182;28;20161;-36
2021/03/10 03:35:33;;;;;;;1999.90;999.90;;;17.80;99.90;;;;;;5074003;28;20168;-36
2021/03/10 03:38:00;;;;;;;1999.90;999.90;;;17.80;99.90;;;;;;5073921;28;20287;-36
2021/03/10 03:40:27;;;;;;;1999.90;999.90;;;17.80;99.90;;;;;;5073798;28;20198;-36
2021/03/10 03:42:54;;;;;;;1999.90;999.90;;;17.80;99.90;;;;;;5073925;28;20179;-35
2021/03/10 03:45:22;;;;;;;1999.90;999.90;;;17.80;99.90;;;;;;5073843;28;20207;-36
2021/03/10 03:47:53;;;;;;;1999.90;999.90;;;17.80;99.90;;;;;;5073798;28;20643;-35
2021/03/10 03:50:21;;;;;;;1999.90;999.90;;;17.80;99.90;;;;;;5073774;28;20175;-36
2021/03/10 03:52:48;;;;;;;1999.90;999.90;;;17.80;99.90;;;;;;5073730;28;20163;-35
2021/03/10 03:55:16;;;;;;;1999.90;999.90;;;17.80;99.90;;;;;;5073789;28;20173;-36
2021/03/10 03:57:44;;;;;;;1999.90;999.90;;;17.80;99.90;;;;;;5073533;28;20587;-35
2021/03/10 04:00:16;;;;;;;1999.90;999.90;;;17.80;99.90;;;;;;5073524;28;20200;-35
2021/03/10 04:02:43;;;;;;;1999.90;999.90;;;17.70;99.90;;;;;;5073489;28;20656;-36
2021/03/10 04:05:10;;;;;;;1999.90;999.90;;;17.70;99.90;;;;;;5073358;28;20569;-38
2021/03/10 04:07:51;;;;;;;1999.90;999.90;;;17.80;99.90;;;;;;5073173;28;20572;-37
2021/03/10 04:10:29;;;;;;;1999.90;999.90;;;17.80;99.90;;;;;;5073421;28;20165;-36
2021/03/10 04:12:56;;;;;;;1999.90;999.90;;;17.80;99.90;;;;;;5073387;28;20145;-36
2021/03/10 04:15:25;;;;;;;1999.90;999.90;;;17.80;99.90;;;;;;5073327;28;20535;-36
2021/03/10 04:17:52;;;;;;;1999.90;999.90;;;17.80;99.90;;;;;;5073064;28;20212;-35
2021/03/10 04:20:22;;;;;;;1999.90;999.90;;;17.70;99.90;;;;;;5073483;28;20168;-35
2021/03/10 04:22:49;;;;;;;1999.90;999.90;;;17.70;99.90;;;;;;5073127;28;20584;-35
2021/03/10 04:25:17;;;;;;;1999.90;999.90;;;17.70;99.90;;;;;;5073161;28;20164;-35
2021/03/10 04:27:44;;;;;;;1999.90;999.90;;;17.70;99.90;;;;;;5073155;28;20172;-35
2021/03/10 04:30:12;;;;;;;1999.90;999.90;;;17.70;99.90;;;;;;5073096;28;20234;-35
2021/03/10 04:32:39;;;;;;;1999.90;999.90;;;17.70;99.90;;;;;;5073305;28;20164;-35
2021/03/10 04:35:07;;;;;;;1999.90;999.90;;;17.70;99.90;;;;;;5073093;28;20281;-35
2021/03/10 04:37:35;;;;;;;1999.90;999.90;;;17.70;99.90;;;;;;5072924;28;20232;-35
2021/03/10 04:40:03;;;;;;;1999.90;999.90;;;17.70;99.90;;;;;;5073046;28;20528;-35
2021/03/10 04:42:29;;;;;;;1999.90;999.90;;;17.70;99.90;;;;;;5072969;28;20634;-35
2021/03/10 04:44:56;;;;;;;1999.90;999.90;;;17.70;99.90;;;;;;5072993;28;20168;-35
2021/03/10 04:47:23;;;;;;;1999.90;999.90;;;17.70;99.90;;;;;;5072996;28;20176;-35
2021/03/10 04:49:50;;;;;;;1999.90;999.90;;;17.70;99.90;;;;;;5072720;28;20270;-35
2021/03/10 04:52:17;;;;;;;1999.90;999.90;;;17.70;99.90;;;;;;5072934;28;20266;-35
2021/03/10 04:54:44;;;;;;;1999.90;999.90;;;17.80;99.90;;;;;;5072931;28;20298;-35
2021/03/10 04:57:10;;;;;;;1999.90;999.90;;;17.80;99.90;;;;;;5072823;28;20204;-36
2021/03/10 04:59:37;;;;;;;1999.90;999.90;;;17.80;99.90;;;;;;5072727;28;20252;-35
2021/03/10 05:02:04;;;;;;;1999.90;999.90;;;17.80;99.90;;;;;;5072757;28;20683;-35
2021/03/10 05:04:31;;;;;;;1999.90;999.90;;;17.80;99.90;;;;;;5072770;28;20168;-35
2021/03/10 05:06:58;;;;;;;1999.90;999.90;;;17.90;99.90;;;;;;5072434;28;20559;-36
2021/03/10 05:09:25;;;;;;;1999.90;999.90;;;17.90;99.90;;;;;;5072678;28;20168;-35
2021/03/10 05:11:52;;;;;;;1999.90;999.90;;;18.00;99.90;;;;;;5072437;28;20176;-35
2021/03/10 05:14:18;;;;;;;1999.90;999.90;;;18.00;99.90;;;;;;5072707;28;20226;-37
2021/03/10 05:16:45;;;;;;;1999.90;999.90;;;18.00;99.90;;;;;;5072650;28;20204;-35
2021/03/10 05:19:12;;;;;;;1999.90;999.90;;;18.00;99.90;;;;;;5075793;28;20796;-35
2021/03/10 05:21:39;;;;;;;1999.90;999.90;;;18.00;99.90;;;;;;5076785;28;20168;-35
2021/03/10 05:24:06;;;;;;;1999.90;999.90;;;18.00;99.90;;;;;;5076484;28;20179;-35
2021/03/10 05:26:33;;;;;;;1999.90;999.90;;;18.00;99.90;;;;;;5076508;28;20208;-38
2021/03/10 05:29:00;;;;;;;1999.90;999.90;;;18.00;99.90;;;;;;5076459;28;20530;-37
2021/03/10 05:31:26;;;;;;;1999.90;999.90;;;18.00;99.90;;;;;;5076330;28;20172;-37
2021/03/10 05:33:53;;;;;;;1999.90;999.90;;;18.00;99.90;;;;;;5076320;28;20168;-37
2021/03/10 05:36:22;;;;;;;1999.90;999.90;;;18.00;99.90;;;;;;5075967;28;20196;-37
2021/03/10 05:38:51;;;;;;;1999.90;999.90;;;18.00;99.90;;;;;;5076288;28;20165;-37
2021/03/10 05:41:18;;;;;;;1999.90;999.90;;;18.00;99.90;;;;;;5076324;28;20169;-37
2021/03/10 05:43:45;;;;;;;1999.90;999.90;;;18.00;99.90;;;;;;5076211;28;20173;-38
2021/03/10 05:46:12;;;;;;;1999.90;999.90;;;18.00;99.90;;;;;;5075925;28;20168;-36
2021/03/10 05:48:40;;;;;;;1999.90;999.90;;;18.00;99.90;;;;;;5075883;28;20168;-36
2021/03/10 05:51:07;;;;;;;1999.90;999.90;;;18.00;99.90;;;;;;5075135;28;20176;-43
2021/03/10 05:53:38;;;;;;;1999.90;999.90;;;18.00;99.90;;;;;;5075129;28;20229;-37
2021/03/10 05:56:06;;;;;;;1999.90;999.90;;;18.00;99.90;;;;;;5075321;28;20654;-36
2021/03/10 05:58:32;;;;;;;1999.90;999.90;;;18.10;99.90;;;;;;5075792;28;20191;-42
2021/03/10 06:00:59;;;;;;;1999.90;999.90;;;18.10;99.90;;;;;;5075307;28;20239;-40
2021/03/10 06:03:26;;;;;;;1999.90;999.90;;;18.20;99.90;;;;;;5075501;28;20191;-63
2021/03/10 06:06:01;;;;;;;1999.90;999.90;;;18.20;99.90;;;;;;5074474;28;20181;-48
2021/03/10 06:08:35;;;;;;;1999.90;999.90;;;18.40;99.90;;;;;;5075487;28;20258;-44
2021/03/10 06:11:03;;;;;;;1999.90;999.90;;;18.40;99.90;;;;;;5075049;28;20152;-50
2021/03/10 06:13:32;;;;;;;1999.90;999.90;;;18.40;99.90;;;;;;5075021;28;20809;-51
2021/03/10 06:16:00;;;;;;;1999.90;999.90;;;18.50;99.90;;;;;;5073122;28;20183;-59
2021/03/10 06:18:36;;;;;;;1999.90;999.90;;;18.60;99.90;;;;;;5073508;28;20176;-48
2021/03/10 06:21:17;;;;;;;1999.90;999.90;;;18.60;99.90;;;;;;5074860;28;20602;-59
2021/03/10 06:23:51;;;;;;;1999.90;999.90;;;18.60;99.90;;;;;;5074453;28;20156;-44
2021/03/10 06:26:20;;;;;;;1999.90;999.90;;;18.60;99.90;;;;;;5074178;28;20168;-46
2021/03/10 06:28:48;;;;;;;1999.90;999.90;;;18.70;99.90;;;;;;5074750;28;20176;-47
2021/03/10 06:31:22;;;;;;;1999.90;999.90;;;18.70;99.90;;;;;;5074386;28;20192;-45
2021/03/10 06:33:59;;;;;;;1999.90;999.90;;;18.70;99.90;;;;;;5074658;28;20516;-49
2021/03/10 06:36:27;;;;;;;1999.90;999.90;;;18.70;99.90;;;;;;5075282;28;20192;-50
2021/03/10 06:38:54;;;;;;;1999.90;999.90;;;18.70;99.90;;;;;;5074169;28;20177;-49
2021/03/10 06:41:28;;;;;;;1999.90;999.90;;;18.80;99.90;;;;;;5074513;28;20615;-49
2021/03/10 06:43:54;;;;;;;1999.90;999.90;;;18.90;99.90;;;;;;5074440;28;20255;-47
2021/03/10 06:46:21;;;;;;;1999.90;999.90;;;18.90;99.90;;;;;;5072896;28;20226;-51
2021/03/10 06:49:04;;;;;;;1999.90;999.90;;;18.90;99.90;;;;;;5074146;28;20557;-58
2021/03/10 06:51:31;;;;;;;1999.90;999.90;;;19.00;99.90;;;;;;5057766;28;20247;-52
2021/03/10 06:53:59;;;;;;;1999.90;999.90;;;19.10;99.90;;;;;;5073760;28;20169;-55
2021/03/10 06:56:28;;;;;;;1999.90;999.90;;;19.20;99.90;;;;;;5074029;28;20234;-47
2021/03/10 06:59:01;;;;;;;1999.90;999.90;;;19.20;99.90;;;;;;5073690;28;20169;-48
2021/03/10 07:01:49;;;;;;;1999.90;999.90;;;19.20;99.90;;;;;;5073535;28;20203;-43
2021/03/10 07:04:15;;;;;;;1999.90;999.90;;;19.30;99.90;;;;;;5072240;28;20279;-46
2021/03/10 07:06:42;;;;;;;1999.90;999.90;;;19.30;99.90;;;;;;5072738;28;20227;-42
2021/03/10 07:09:14;;;;;;;1999.90;999.90;;;19.30;99.90;;;;;;5073731;28;20157;-50
2021/03/10 07:11:42;;;;;;;1999.90;999.90;;;19.30;99.90;;;;;;5073759;28;20165;-43
2021/03/10 07:14:13;;;;;;;1999.90;999.90;;;19.30;99.90;;;;;;5054843;28;20169;-51
2021/03/10 07:16:41;;;;;;;1999.90;999.90;;;19.40;99.90;;;;;;5073518;28;20670;-55
2021/03/10 07:19:10;;;;;;;1999.90;999.90;;;19.40;99.90;;;;;;5072619;28;20199;-46
2021/03/10 07:21:51;;;;;;;1999.90;999.90;;;19.30;99.90;;;;;;5072461;28;20176;-40
2021/03/10 07:24:46;;;;;;;1999.90;999.90;;;19.20;99.90;;;;;;5072883;28;20606;-46
2021/03/10 07:27:16;;;;;;;1999.90;999.90;;;19.20;99.90;;;;;;5051542;28;20264;-40
2021/03/10 07:29:43;;;;;;;1999.90;999.90;;;19.30;99.90;;;;;;5053080;28;20162;-46
2021/03/10 07:32:11;;;;;;;1999.90;999.90;;;19.30;99.90;;;;;;5067915;28;20596;-41
2021/03/10 07:34:41;;;;;;;1999.90;999.90;;;19.40;99.90;;;;;;5071367;28;20275;-40
2021/03/10 07:37:16;;;;;;;1999.90;999.90;;;19.50;99.90;;;;;;5071726;28;20192;-41
2021/03/10 07:39:43;;;;;;;1999.90;999.90;;;19.50;99.90;;;;;;5073222;28;20180;-44
2021/03/10 07:42:17;;;;;;;1999.90;999.90;;;19.40;99.90;;;;;;5071582;28;20263;-40
2021/03/10 07:44:55;;;;;;;1999.90;999.90;;;19.20;99.90;;;;;;5072169;28;20161;-50
2021/03/10 07:47:22;;;;;;;1999.90;999.90;;;19.10;99.90;;;;;;5072698;28;20162;-43
2021/03/10 07:50:01;;;;;;;1999.90;999.90;;;19.10;99.90;;;;;;5072373;28;20688;-45
2021/03/10 07:52:29;;;;;;;1999.90;999.90;;;19.20;99.90;;;;;;5073090;28;20183;-48
2021/03/10 07:55:03;;;;;;;1999.90;999.90;;;19.20;99.90;;;;;;5071571;28;20208;-50
2021/03/10 07:57:30;;;;;;;1999.90;999.90;;;19.20;99.90;;;;;;5072220;28;20761;-41
2021/03/10 08:00:00;;;;;;;1999.90;999.90;;;19.20;99.90;;;;;;5072642;28;20168;-59
2021/03/10 08:02:39;;;;;;;1999.90;999.90;;;19.30;99.90;;;;;;5072020;28;20642;-40
2021/03/10 08:05:18;;;;;;;1999.90;999.90;;;19.40;99.90;;;;;;5069118;28;20169;-49
2021/03/10 08:07:45;;;;;;;1999.90;999.90;;;19.50;99.90;;;;;;5072420;28;20269;-40
2021/03/10 08:10:12;;;;;;;1999.90;999.90;;;19.50;99.90;;;;;;5071630;28;20177;-47
2021/03/10 08:12:42;;;;;;;1999.90;999.90;;;19.60;99.90;;;;;;5071591;28;20184;-44
2021/03/10 08:15:23;;;;;;;1999.90;999.90;;;19.70;99.90;;;;;;5072334;28;20247;-51
2021/03/10 08:18:01;;;;;;;1999.90;999.90;;;19.70;99.90;;;;;;5071070;28;20196;-55
2021/03/10 08:20:32;;;;;;;1999.90;999.90;;;19.60;99.90;;;;;;5068928;28;20160;-53
2021/03/10 08:22:59;;;;;;;1999.90;999.90;;;19.60;99.90;;;;;;5072317;28;20168;-49
2021/03/10 08:25:26;;;;;;;1999.90;999.90;;;19.70;99.90;;;;;;5071673;28;20169;-47
2021/03/10 08:27:53;;;;;;;1999.90;999.90;;;19.70;99.90;;;;;;5072256;28;20218;-50
2021/03/10 08:30:25;;;;;;;1999.90;999.90;;;19.80;99.90;;;;;;5072330;28;20635;-56
2021/03/10 08:33:02;;;;;;;1999.90;999.90;;;19.60;99.90;;;;;;5072099;28;20152;-46
2021/03/10 08:35:29;;;;;;;1999.90;999.90;;;19.50;99.90;;;;;;5072049;28;20171;-42
2021/03/10 08:37:57;;;;;;;1999.90;999.90;;;19.30;99.90;;;;;;5053800;28;20678;-45
2021/03/10 08:40:26;;;;;;;1999.90;999.90;;;19.30;99.90;;;;;;5071729;28;20177;-43
2021/03/10 08:42:53;;;;;;;1999.90;999.90;;;19.20;99.90;;;;;;5072133;28;20638;-54
2021/03/10 08:45:25;;;;;;;1999.90;999.90;;;19.30;99.90;;;;;;5071559;28;20209;-50
2021/03/10 08:48:09;;;;;;;1999.90;999.90;;;19.20;99.90;;;;;;5071902;28;20254;-51
2021/03/10 08:50:45;;;;;;;1999.90;999.90;;;19.20;99.90;;;;;;5061609;28;20566;-42
2021/03/10 08:53:14;;;;;;;1999.90;999.90;;;19.20;99.90;;;;;;5072021;28;20156;-56
2021/03/10 08:55:42;;;;;;;1999.90;999.90;;;19.30;99.90;;;;;;5051991;28;20618;-53
2021/03/10 08:58:15;;;;;;;1999.90;999.90;;;19.30;99.90;;;;;;5061395;28;20200;-64
2021/03/10 09:00:42;;;;;;;1999.90;999.90;;;19.30;99.90;;;;;;5071198;28;20179;-39
2021/03/10 09:03:19;;;;;;;1999.90;999.90;;;19.30;99.90;;;;;;5072034;28;20187;-54
2021/03/10 09:05:48;;;;;;;1999.90;999.90;;;19.30;99.90;;;;;;5072216;28;20179;-55
2021/03/10 09:08:28;;;;;;;1999.90;999.90;;;19.20;99.90;;;;;;5072272;28;20629;-42
2021/03/10 09:10:57;;;;;;;1999.90;999.90;;;19.30;99.90;;;;;;5072483;28;20260;-40
2021/03/10 09:13:24;;;;;;;1999.90;999.90;;;19.20;99.90;;;;;;5072367;28;20173;-40
2021/03/10 09:15:51;;;;;;;1999.90;999.90;;;19.20;99.90;;;;;;5072233;28;20184;-40
2021/03/10 09:18:18;;;;;;;1999.90;999.90;;;19.20;99.90;;;;;;5072193;28;20259;-41
2021/03/10 09:20:46;;;;;;;1999.90;999.90;;;19.20;99.90;;;;;;5072494;28;20248;-41
2021/03/10 09:23:23;;;;;;;1999.90;999.90;;;19.30;99.90;;;;;;5072027;28;20618;-52
2021/03/10 09:25:55;;;;;;;1999.90;999.90;;;19.30;99.90;;;;;;5069301;28;20203;-54
2021/03/10 09:28:22;;;;;;;1999.90;999.90;;;19.40;99.90;;;;;;5072392;28;20214;-43
2021/03/10 09:30:51;;;;;;;1999.90;999.90;;;19.50;99.90;;;;;;5072096;28;20639;-44
2021/03/10 09:33:19;;;;;;;1999.90;999.90;;;19.50;99.90;;;;;;5071490;28;20540;-39
2021/03/10 09:35:59;;;;;;;1999.90;999.90;;;19.60;99.90;;;;;;5071927;28;20180;-42
2021/03/10 09:38:27;;;;;;;1999.90;999.90;;;19.70;99.90;;;;;;5054002;28;20545;-41
2021/03/10 09:40:59;;;;;;;1999.90;999.90;;;19.90;99.90;;;;;;5052190;28;20169;-40
2021/03/10 09:43:31;;;;;;;1999.90;999.90;;;20.20;99.90;;;;;;5052156;28;20153;-39
2021/03/10 09:46:00;;;;;;;1999.90;999.90;;;20.40;99.90;;;;;;5069651;28;20191;-40
2021/03/10 09:48:41;;;;;;;1999.90;999.90;;;20.40;99.90;;;;;;5072008;28;20201;-45
2021/03/10 09:51:10;;;;;;;1999.90;999.90;;;20.20;99.90;;;;;;5072148;28;20626;-52
2021/03/10 09:53:42;;;;;;;1999.90;999.90;;;20.00;99.90;;;;;;5071829;28;20542;-39
2021/03/10 09:56:14;;;;;;;1999.90;999.90;;;19.80;99.90;;;;;;5071908;28;20255;-40
2021/03/10 09:58:47;;;;;;;1999.90;999.90;;;20.00;99.90;;;;;;5072084;28;20658;-42
2021/03/10 10:01:14;;;;;;;1999.90;999.90;;;20.10;99.90;;;;;;5067533;28;20571;-41
2021/03/10 10:03:41;;;;;;;1999.90;999.90;;;20.10;99.90;;;;;;5072490;28;20214;-41
2021/03/10 10:06:09;;;;;;;1999.90;999.90;;;20.10;99.90;;;;;;5075417;28;20161;-40
2021/03/10 10:08:38;;;;;;;1999.90;999.90;;;19.90;99.90;;;;;;5075236;28;20626;-41
2021/03/10 10:11:09;;;;;;;1999.90;999.90;;;19.80;99.90;;;;;;5075299;28;20624;-42
2021/03/10 10:13:36;;;;;;;1999.90;999.90;;;19.80;99.90;;;;;;5075143;28;20259;-43
2021/03/10 10:16:03;;;;;;;1999.90;999.90;;;19.80;99.90;;;;;;5075183;28;20180;-41
2021/03/10 10:18:29;;;;;;;1999.90;999.90;;;19.80;99.90;;;;;;5075553;28;20181;-41
2021/03/10 10:20:56;;;;;;;1999.90;999.90;;;19.70;99.90;;;;;;5074939;28;20226;-40
2021/03/10 10:23:23;;;;;;;1999.90;999.90;;;19.70;99.90;;;;;;5075462;28;20177;-41
2021/03/10 10:25:50;;;;;;;1999.90;999.90;;;19.70;99.90;;;;;;5075364;28;20214;-62
2021/03/10 10:28:17;;;;;;;1999.90;999.90;;;19.80;99.90;;;;;;5074858;28;20168;-56
2021/03/10 10:30:44;;;;;;;1999.90;999.90;;;20.00;99.90;;;;;;5074830;28;20177;-56
2021/03/10 10:33:10;;;;;;;1999.90;999.90;;;20.30;99.90;;;;;;5074535;28;20635;-56
2021/03/10 10:35:37;;;;;;;1999.90;999.90;;;20.50;99.90;;;;;;5074077;28;20317;-54
2021/03/10 10:38:05;;;;;;;1999.90;999.90;;;20.60;99.90;;;;;;5074654;28;20204;-58
2021/03/10 10:40:32;;;;;;;1999.90;999.90;;;20.60;99.90;;;;;;5074193;28;20330;-50
2021/03/10 10:42:59;;;;;;;1999.90;999.90;;;20.60;99.90;;;;;;5074818;28;20172;-52
2021/03/10 10:45:25;;;;;;;1999.90;999.90;;;20.60;99.90;;;;;;5074499;28;20180;-44
2021/03/10 10:47:52;;;;;;;1999.90;999.90;;;20.80;99.90;;;;;;5074682;28;20536;-60
2021/03/10 10:50:19;;;;;;;1999.90;999.90;;;20.80;99.90;;;;;;5074836;28;20168;-49
2021/03/10 10:52:47;;;;;;;1999.90;999.90;;;20.90;99.90;;;;;;5074685;28;20222;-42
2021/03/10 10:55:22;;;;;;;1999.90;999.90;;;21.10;99.50;;;;;;5074875;28;20650;-52
2021/03/10 10:57:49;;;;;;;1999.90;999.90;;;21.20;99.40;;;;;;5074456;28;20269;-42
2021/03/10 11:00:20;;;;;;;1999.90;999.90;;;21.40;99.40;;;;;;5074827;28;20191;-52
2021/03/10 11:02:47;;;;;;;1999.90;999.90;;;21.40;98.80;;;;;;5074737;28;20530;-49
2021/03/10 11:05:13;;;;;;;1999.90;999.90;;;21.60;98.60;;;;;;5074422;28;20204;-48
2021/03/10 11:07:40;;;;;;;1999.90;999.90;;;21.70;98.20;;;;;;5074263;28;20298;-43
2021/03/10 11:10:08;;;;;;;1999.90;999.90;;;21.70;98.20;;;;;;5073920;28;20260;-49
2021/03/10 11:12:35;;;;;;;1999.90;999.90;;;21.70;97.70;;;;;;5073486;28;20172;-53
2021/03/10 11:15:03;;;;;;;1999.90;999.90;;;21.50;98.10;;;;;;5074177;28;20646;-39
2021/03/10 11:17:30;;;;;;;1999.90;999.90;;;21.50;98.00;;;;;;5074203;28;20224;-39
2021/03/10 11:19:56;;;;;;;1999.90;999.90;;;21.50;97.30;;;;;;5073901;28;20561;-57
2021/03/10 11:22:23;;;;;;;1999.90;999.90;;;21.40;97.00;;;;;;5073626;28;20176;-53
2021/03/10 11:24:50;;;;;;;1999.90;999.90;;;21.40;97.30;;;;;;5073070;28;20173;-58
2021/03/10 11:27:17;;;;;;;1999.90;999.90;;;21.50;97.60;;;;;;5073228;28;20204;-62
2021/03/10 11:29:45;;;;;;;1999.90;999.90;;;21.50;97.60;;;;;;5073098;28;20203;-58
2021/03/10 11:32:12;;;;;;;1999.90;999.90;;;21.40;98.00;;;;;;5073697;28;20207;-48
2021/03/10 11:34:39;;;;;;;1999.90;999.90;;;21.20;98.40;;;;;;5073157;28;20182;-50
2021/03/10 11:37:08;;;;;;;1999.90;999.90;;;20.90;98.60;;;;;;5073618;28;20233;-55
2021/03/10 11:39:35;;;;;;;1999.90;999.90;;;20.70;99.10;;;;;;5073602;28;20184;-53
2021/03/10 11:42:02;;;;;;;1999.90;999.90;;;20.60;99.90;;;;;;5073751;28;20251;-55
2021/03/10 11:44:29;;;;;;;1999.90;999.90;;;20.50;99.90;;;;;;5073654;28;20172;-57
2021/03/10 11:46:56;;;;;;;1999.90;999.90;;;20.50;99.90;;;;;;5073821;28;20171;-42
2021/03/10 11:49:23;;;;;;;1999.90;999.90;;;20.40;99.90;;;;;;5073053;28;20591;-43
2021/03/10 11:51:50;;;;;;;1999.90;999.90;;;20.10;99.90;;;;;;5073921;28;20255;-42
2021/03/10 11:54:17;;;;;;;1999.90;999.90;;;19.90;99.90;;;;;;5073140;28;20172;-57
2021/03/10 11:56:43;;;;;;;1999.90;999.90;;;19.90;99.90;;;;;;5072369;28;20215;-52
2021/03/10 11:59:10;;;;;;;1999.90;999.90;;;19.90;99.90;;;;;;5072994;28;20172;-52
2021/03/10 12:01:37;;;;;;;1999.90;999.90;;;20.00;99.90;;;;;;5073372;28;20214;-49
2021/03/10 12:04:04;;;;;;;1999.90;999.90;;;20.00;99.90;;;;;;5073167;28;20187;-51
2021/03/10 12:06:31;;;;;;;1999.90;999.90;;;20.00;99.90;;;;;;5072129;28;20214;-49
2021/03/10 12:08:58;;;;;;;1999.90;999.90;;;19.90;99.90;;;;;;5072877;28;20176;-47